createdAt,value
2023-02-18T00:04:47.077Z,1028.16
2023-02-18T00:09:54.250Z,1028.12
2023-02-18T00:15:01.427Z,1028.18
2023-02-18T00:20:08.635Z,1028.14
2023-02-18T00:25:15.787Z,1028.21
2023-02-18T00:30:23.026Z,1028.23
2023-02-18T00:35:30.264Z,1028.30
2023-02-18T00:40:37.345Z,1028.26
2023-02-18T00:45:44.521Z,1028.21
2023-02-18T00:50:51.750Z,1028.08
2023-02-18T00:55:58.892Z,1028.06
2023-02-18T01:01:07.548Z,1028.08
2023-02-18T01:06:13.505Z,1027.98
2023-02-18T01:11:20.731Z,1027.99
2023-02-18T01:16:27.919Z,1027.92
2023-02-18T01:21:35.145Z,1027.93
2023-02-18T01:26:42.221Z,1027.92
2023-02-18T01:31:49.569Z,1027.88
2023-02-18T01:36:56.821Z,1027.76
2023-02-18T01:42:03.969Z,1027.82
2023-02-18T01:47:11.152Z,1027.72
2023-02-18T01:52:18.364Z,1027.74
2023-02-18T01:57:25.522Z,1027.67
2023-02-18T02:02:32.719Z,1027.61
2023-02-18T02:07:39.899Z,1027.72
2023-02-18T02:12:47.064Z,1027.72
2023-02-18T02:17:54.281Z,1027.64
2023-02-18T02:23:01.487Z,1027.55
2023-02-18T02:28:08.723Z,1027.53
2023-02-18T02:33:16.072Z,1027.52
2023-02-18T02:38:23.308Z,1027.37
2023-02-18T02:43:30.489Z,1027.37
2023-02-18T02:48:37.730Z,1027.30
2023-02-18T02:53:44.974Z,1027.32
2023-02-18T02:58:52.144Z,1027.32
2023-02-18T03:03:59.326Z,1027.24
2023-02-18T03:09:06.535Z,1027.11
2023-02-18T03:14:13.721Z,1027.06
2023-02-18T03:19:20.912Z,1027.13
2023-02-18T03:24:28.187Z,1027.05
2023-02-18T03:29:35.326Z,1027.09
2023-02-18T03:34:42.555Z,1027.17
2023-02-18T03:39:49.767Z,1027.15
2023-02-18T03:44:56.998Z,1027.02
2023-02-18T03:50:04.213Z,1027.03
2023-02-18T03:55:11.417Z,1027.08
2023-02-18T04:00:18.563Z,1027.16
2023-02-18T04:05:25.741Z,1027.35
2023-02-18T04:10:32.962Z,1027.30
2023-02-18T04:15:40.158Z,1027.40
2023-02-18T04:20:47.398Z,1027.35
2023-02-18T04:25:54.628Z,1027.29
2023-02-18T04:31:01.986Z,1027.24
2023-02-18T04:36:09.392Z,1027.29
2023-02-18T04:41:16.286Z,1027.36
2023-02-18T04:46:23.355Z,1027.36
2023-02-18T04:51:30.505Z,1027.46
2023-02-18T04:56:37.746Z,1027.46
2023-02-18T05:01:44.922Z,1027.46
2023-02-18T05:06:52.145Z,1027.43
2023-02-18T05:11:59.367Z,1027.28
2023-02-18T05:17:06.542Z,1027.15
2023-02-18T05:22:13.910Z,1027.08
2023-02-18T05:27:21.106Z,1026.95
2023-02-18T05:32:28.286Z,1026.84
2023-02-18T05:37:35.449Z,1026.91
2023-02-18T05:42:42.700Z,1026.97
2023-02-18T05:47:49.932Z,1026.91
2023-02-18T05:52:57.120Z,1027.01
2023-02-18T05:58:04.304Z,1026.99
2023-02-18T06:03:11.438Z,1027.07
2023-02-18T06:08:18.590Z,1027.08
2023-02-18T06:13:25.787Z,1027.02
2023-02-18T06:18:32.950Z,1027.00
2023-02-18T06:23:40.222Z,1027.00
2023-02-18T06:28:47.558Z,1027.03
2023-02-18T06:33:54.603Z,1027.01
2023-02-18T06:39:01.798Z,1027.06
2023-02-18T06:44:09.009Z,1027.01
2023-02-18T06:49:16.120Z,1027.03
2023-02-18T06:54:23.325Z,1027.02
2023-02-18T06:59:30.549Z,1027.01
2023-02-18T07:04:37.689Z,1027.04
2023-02-18T07:09:44.874Z,1027.07
2023-02-18T07:14:52.085Z,1027.11
2023-02-18T07:19:59.237Z,1027.13
2023-02-18T07:25:06.456Z,1027.04
2023-02-18T07:30:13.704Z,1026.96
2023-02-18T07:35:20.858Z,1027.01
2023-02-18T07:40:28.049Z,1026.91
2023-02-18T07:45:35.357Z,1026.90
2023-02-18T07:50:42.511Z,1026.94
2023-02-18T07:55:49.797Z,1026.94
2023-02-18T08:00:57.107Z,1026.95
2023-02-18T08:06:04.240Z,1026.97
2023-02-18T08:11:18.992Z,1026.98
2023-02-18T08:16:18.727Z,1026.99
2023-02-18T08:21:25.847Z,1026.99
2023-02-18T08:26:33.098Z,1027.05
2023-02-18T08:31:41.080Z,1027.04
2023-02-18T08:36:47.573Z,1027.09
2023-02-18T08:41:54.761Z,1027.08
2023-02-18T08:47:02.087Z,1027.04
2023-02-18T08:52:09.294Z,1027.02
2023-02-18T08:57:16.478Z,1027.01
2023-02-18T09:02:23.688Z,1026.99
2023-02-18T09:07:30.933Z,1027.01
2023-02-18T09:12:38.126Z,1026.98
2023-02-18T09:17:45.360Z,1026.87
2023-02-18T09:22:52.578Z,1026.86
2023-02-18T09:27:59.792Z,1026.80
2023-02-18T09:33:07.014Z,1026.78
2023-02-18T09:38:14.149Z,1026.68
2023-02-18T09:43:21.419Z,1026.55
2023-02-18T09:48:28.628Z,1026.45
2023-02-18T09:53:35.811Z,1026.39
2023-02-18T09:58:42.979Z,1026.30
2023-02-18T10:03:50.202Z,1026.33
2023-02-18T10:08:57.363Z,1026.30
2023-02-18T10:14:04.541Z,1026.30
2023-02-18T10:19:11.765Z,1026.21
2023-02-18T10:24:19.022Z,1026.22
2023-02-18T10:29:26.211Z,1026.16
2023-02-18T10:34:33.381Z,1026.15
2023-02-18T10:39:40.780Z,1026.06
2023-02-18T10:44:47.990Z,1026.10
2023-02-18T10:49:55.244Z,1026.07
2023-02-18T10:55:02.416Z,1026.12
2023-02-18T11:00:09.588Z,1026.02
2023-02-18T11:05:16.816Z,1026.01
2023-02-18T11:10:23.972Z,1026.01
2023-02-18T11:15:31.147Z,1025.90
2023-02-18T11:20:38.352Z,1025.78
2023-02-18T11:25:45.647Z,1025.73
2023-02-18T11:30:52.917Z,1025.61
2023-02-18T11:36:00.118Z,1025.52
2023-02-18T11:41:07.784Z,1025.40
2023-02-18T11:46:14.447Z,1025.36
2023-02-18T11:51:21.708Z,1025.29
2023-02-18T11:56:28.830Z,1025.17
2023-02-18T12:01:36.127Z,1025.09
2023-02-18T12:06:43.412Z,1024.95
2023-02-18T12:11:50.660Z,1024.81
2023-02-18T12:16:57.786Z,1024.70
2023-02-18T12:22:04.983Z,1024.54
2023-02-18T12:27:12.145Z,1024.54
2023-02-18T12:32:19.376Z,1024.47
2023-02-18T12:37:26.786Z,1024.43
2023-02-18T12:42:34.089Z,1024.37
2023-02-18T12:47:41.580Z,1024.22
2023-02-18T12:52:49.222Z,1024.20
2023-02-18T12:57:56.571Z,1024.27
2023-02-18T13:03:04.070Z,1024.19
2023-02-18T13:08:11.461Z,1024.17
2023-02-18T13:13:18.536Z,1024.02
2023-02-18T13:18:25.774Z,1023.83
2023-02-18T13:23:32.999Z,1023.76
2023-02-18T13:28:40.281Z,1023.63
2023-02-18T13:33:47.643Z,1023.59
2023-02-18T13:38:54.873Z,1023.43
2023-02-18T13:44:02.223Z,1023.35
2023-02-18T13:49:09.550Z,1023.33
2023-02-18T13:54:17.130Z,1023.22
2023-02-18T13:59:24.705Z,1023.26
2023-02-18T14:04:32.331Z,1023.24
2023-02-18T14:09:39.674Z,1023.19
2023-02-18T14:14:47.126Z,1023.07
2023-02-18T14:19:54.529Z,1023.07
2023-02-18T14:25:01.751Z,1023.05
2023-02-18T14:30:09.041Z,1023.12
2023-02-18T14:35:16.266Z,1023.15
2023-02-18T14:40:23.787Z,1023.15
2023-02-18T14:45:31.130Z,1023.27
2023-02-18T14:50:38.373Z,1023.21
2023-02-18T14:55:45.646Z,1023.24
2023-02-18T15:00:52.810Z,1023.11
2023-02-18T15:05:59.985Z,1023.25
2023-02-18T15:11:07.188Z,1023.27
2023-02-18T15:16:14.703Z,1023.22
2023-02-18T15:21:21.942Z,1023.24
2023-02-18T15:26:29.453Z,1023.19
2023-02-18T15:31:37.009Z,1023.22
2023-02-18T15:36:44.090Z,1023.21
2023-02-18T15:41:51.300Z,1023.26
2023-02-18T15:46:58.435Z,1023.26
2023-02-18T15:52:05.921Z,1023.23
2023-02-18T15:57:13.396Z,1023.22
2023-02-18T16:02:20.988Z,1023.16
2023-02-18T16:07:28.711Z,1023.19
2023-02-18T16:12:36.344Z,1023.16
2023-02-18T16:17:43.709Z,1023.14
2023-02-18T16:22:51.141Z,1023.11
2023-02-18T16:27:58.581Z,1023.14
2023-02-18T16:33:05.846Z,1023.18
2023-02-18T16:38:13.291Z,1023.21
2023-02-18T16:43:20.913Z,1023.20
2023-02-18T16:48:28.592Z,1023.19
2023-02-18T16:53:36.069Z,1023.22
2023-02-18T16:58:43.640Z,1023.17
2023-02-18T17:03:51.449Z,1023.25
2023-02-18T17:08:59.156Z,1023.30
2023-02-18T17:14:06.898Z,1023.26
2023-02-18T17:19:14.316Z,1023.31
2023-02-18T17:24:21.899Z,1023.30
2023-02-18T17:29:29.539Z,1023.33
2023-02-18T17:34:37.151Z,1023.39
2023-02-18T17:39:44.433Z,1023.42
2023-02-18T17:44:51.996Z,1023.49
2023-02-18T17:49:59.561Z,1023.54
2023-02-18T17:55:07.193Z,1023.58
2023-02-18T18:00:14.935Z,1023.55
2023-02-18T18:05:22.511Z,1023.59
2023-02-18T18:10:30.125Z,1023.61
2023-02-18T18:15:37.760Z,1023.55
2023-02-18T18:20:45.168Z,1023.66
2023-02-18T18:25:52.653Z,1023.78
2023-02-18T18:31:00.317Z,1023.81
2023-02-18T18:36:08.310Z,1023.83
2023-02-18T18:41:15.402Z,1023.86
2023-02-18T18:46:23.008Z,1023.88
2023-02-18T18:51:30.544Z,1023.89
2023-02-18T18:56:39.281Z,1023.89
2023-02-18T19:01:46.710Z,1023.86
2023-02-18T19:06:54.108Z,1023.86
2023-02-18T19:12:01.700Z,1023.98
2023-02-18T19:17:09.101Z,1023.95
2023-02-18T19:22:16.605Z,1024.07
2023-02-18T19:27:24.243Z,1024.13
2023-02-18T19:32:31.876Z,1024.18
2023-02-18T19:37:39.463Z,1024.17
2023-02-18T19:42:47.287Z,1024.32
2023-02-18T19:47:54.758Z,1024.24
2023-02-18T19:53:02.012Z,1024.27
2023-02-18T19:58:09.521Z,1024.31
2023-02-18T20:03:16.898Z,1024.33
2023-02-18T20:08:24.344Z,1024.43
2023-02-18T20:13:31.690Z,1024.39
2023-02-18T20:18:39.179Z,1024.48
2023-02-18T20:23:46.773Z,1024.49
2023-02-18T20:28:54.390Z,1024.40
2023-02-18T20:34:02.031Z,1024.41
2023-02-18T20:39:16.203Z,1024.42
2023-02-18T20:44:16.922Z,1024.43
2023-02-18T20:49:25.068Z,1024.48
2023-02-18T20:54:32.454Z,1024.60
2023-02-18T20:59:40.084Z,1024.52
2023-02-18T21:04:47.432Z,1024.57
2023-02-18T21:09:54.614Z,1024.61
2023-02-18T21:15:02.105Z,1024.58
2023-02-18T21:20:09.744Z,1024.61
2023-02-18T21:25:16.957Z,1024.65
2023-02-18T21:30:24.584Z,1024.62
2023-02-18T21:35:32.169Z,1024.60
2023-02-18T21:40:40.667Z,1024.58
2023-02-18T21:45:48.185Z,1024.57
2023-02-18T21:50:55.649Z,1024.54
2023-02-18T21:56:03.993Z,1024.59
2023-02-18T22:01:10.666Z,1024.57
2023-02-18T22:06:17.665Z,1024.54
2023-02-18T22:11:24.922Z,1024.55
2023-02-18T22:16:32.220Z,1024.51
2023-02-18T22:21:39.308Z,1024.49
2023-02-18T22:26:46.507Z,1024.46
2023-02-18T22:31:53.827Z,1024.44
2023-02-18T22:37:00.858Z,1024.45
2023-02-18T22:42:08.028Z,1024.38
2023-02-18T22:47:15.193Z,1024.41
2023-02-18T22:52:22.520Z,1024.36
2023-02-18T22:57:29.664Z,1024.32
2023-02-18T23:02:36.876Z,1024.31
2023-02-18T23:07:44.094Z,1024.25
2023-02-18T23:12:51.396Z,1024.22
2023-02-18T23:17:58.627Z,1024.21
2023-02-18T23:23:05.830Z,1024.21
2023-02-18T23:28:12.986Z,1024.21
2023-02-18T23:33:20.270Z,1024.23
2023-02-18T23:38:27.567Z,1024.18
2023-02-18T23:43:34.744Z,1024.21
2023-02-18T23:48:41.945Z,1024.23
2023-02-18T23:53:49.134Z,1024.25
2023-02-18T23:58:56.286Z,1024.19
